Time;durP1;ratioP1;P1;durP2;ratioP2;P2;SDS_P1;SDS_P2;PMS_P1;PMS_P2;Temp;Humidity;BMP_temperature;BMP_pressure;BME280_temperature;BME280_humidity;BME280_pressure;Samples;Min_cycle;Max_cycle;Signal;HPM_P1;HPM_P2
2023/11/10 00:00:40;;;;;;;1.85;0.90;;;8.10;99.90;;;;;;5013054;28;20029;-53
2023/11/10 00:03:06;;;;;;;1.77;0.82;;;8.00;99.90;;;;;;5028605;28;20478;-52
2023/11/10 00:05:32;;;;;;;5.38;0.75;;;8.10;99.90;;;;;;5032924;28;20405;-53
2023/11/10 00:07:58;;;;;;;2.35;0.60;;;8.10;99.90;;;;;;5032950;28;20494;-52
2023/11/10 00:10:27;;;;;;;3.25;1.13;;;8.10;99.90;;;;;;5032355;28;20045;-53
2023/11/10 00:12:56;;;;;;;1.48;1.23;;;8.10;99.90;;;;;;5032594;28;20034;-54
2023/11/10 00:15:22;;;;;;;8.68;1.17;;;8.10;99.90;;;;;;5032486;28;20469;-54
2023/11/10 00:17:49;;;;;;;1.25;0.77;;;8.10;99.90;;;;;;5032781;28;20083;-53
2023/11/10 00:20:16;;;;;;;0.95;0.90;;;8.10;99.90;;;;;;5032537;28;20033;-54
2023/11/10 00:22:41;;;;;;;4.50;1.15;;;8.10;99.90;;;;;;5032658;28;20037;-53
2023/11/10 00:25:08;;;;;;;1.27;1.17;;;8.10;99.90;;;;;;5032575;28;20382;-54
2023/11/10 00:27:34;;;;;;;4.68;2.42;;;8.10;99.90;;;;;;5032700;28;20025;-50
2023/11/10 00:30:02;;;;;;;1.15;1.13;;;8.10;99.90;;;;;;5032401;28;20032;-53
2023/11/10 00:32:27;;;;;;;1.40;1.30;;;8.20;99.90;;;;;;5031369;28;20393;-53
2023/11/10 00:34:53;;;;;;;2.78;1.90;;;8.20;99.90;;;;;;5032522;28;20021;-53
2023/11/10 00:37:19;;;;;;;2.60;1.30;;;8.20;99.90;;;;;;5032224;28;20044;-53
2023/11/10 00:39:44;;;;;;;5.43;1.48;;;8.10;99.90;;;;;;5032102;28;20112;-53
2023/11/10 00:42:11;;;;;;;4.85;1.38;;;8.10;99.90;;;;;;5032480;28;20398;-52
2023/11/10 00:44:37;;;;;;;3.00;1.77;;;8.20;99.90;;;;;;5017719;28;20104;-54
2023/11/10 00:47:03;;;;;;;4.53;1.40;;;8.20;99.90;;;;;;5031482;28;20100;-53
2023/11/10 00:49:28;;;;;;;5.70;1.50;;;8.20;99.90;;;;;;5030757;28;20079;-54
2023/11/10 00:51:54;;;;;;;1.40;1.30;;;8.20;99.90;;;;;;5031815;28;20108;-53
2023/11/10 00:54:20;;;;;;;2.88;1.60;;;8.30;99.90;;;;;;5032282;28;20056;-54
2023/11/10 00:56:45;;;;;;;1.85;1.58;;;8.30;99.90;;;;;;5031666;28;20026;-54
2023/11/10 00:59:11;;;;;;;4.72;1.75;;;8.30;99.90;;;;;;5031859;28;20029;-54
2023/11/10 01:01:37;;;;;;;2.78;1.42;;;8.30;99.90;;;;;;5033488;28;20021;-54
2023/11/10 01:04:07;;;;;;;6.82;1.40;;;8.30;99.90;;;;;;5036022;28;20026;-54
2023/11/10 01:06:33;;;;;;;2.15;1.42;;;8.30;99.90;;;;;;5035588;28;20438;-41
2023/11/10 01:09:02;;;;;;;4.10;1.40;;;8.30;99.90;;;;;;5035354;28;20065;-38
2023/11/10 01:11:28;;;;;;;4.57;1.70;;;8.40;99.90;;;;;;5035852;28;20025;-38
2023/11/10 01:13:54;;;;;;;6.47;1.45;;;8.40;99.90;;;;;;5035926;28;20470;-40
2023/11/10 01:16:19;;;;;;;3.65;1.67;;;8.30;99.90;;;;;;5035431;28;20025;-37
2023/11/10 01:18:45;;;;;;;6.22;1.73;;;8.40;99.90;;;;;;5035800;28;20386;-41
2023/11/10 01:21:11;;;;;;;2.53;1.30;;;8.30;99.90;;;;;;5035753;28;20022;-40
2023/11/10 01:23:37;;;;;;;4.57;1.73;;;8.30;99.90;;;;;;5035430;28;20029;-38
2023/11/10 01:26:03;;;;;;;2.25;1.88;;;8.20;99.90;;;;;;5035685;28;20033;-38
2023/11/10 01:28:29;;;;;;;1.42;1.33;;;8.20;99.90;;;;;;5035569;28;20164;-43
2023/11/10 01:30:55;;;;;;;2.28;1.50;;;8.20;99.90;;;;;;5035579;28;20497;-38
2023/11/10 01:33:20;;;;;;;11.82;1.92;;;8.20;99.90;;;;;;5035193;28;20470;-38
2023/11/10 01:35:46;;;;;;;7.82;1.77;;;8.30;99.90;;;;;;5034771;28;20512;-39
2023/11/10 01:38:12;;;;;;;5.15;2.25;;;8.30;99.90;;;;;;5035295;28;20030;-41
2023/11/10 01:40:39;;;;;;;1.45;1.35;;;8.30;99.90;;;;;;5035050;28;20028;-39
2023/11/10 01:43:14;;;;;;;1.98;1.50;;;8.30;99.90;;;;;;5035264;28;20152;-39
2023/11/10 01:45:40;;;;;;;5.38;1.52;;;8.30;99.90;;;;;;5034879;28;20022;-41
2023/11/10 01:48:07;;;;;;;3.55;1.67;;;8.30;99.90;;;;;;5035243;28;20057;-40
2023/11/10 01:50:34;;;;;;;6.18;1.73;;;8.30;99.90;;;;;;5034970;28;20021;-38
2023/11/10 01:53:03;;;;;;;2.30;1.27;;;8.30;99.90;;;;;;5035198;28;20029;-47
2023/11/10 01:55:32;;;;;;;9.07;1.80;;;8.40;99.90;;;;;;5033494;28;20021;-42
2023/11/10 01:57:58;;;;;;;1.50;1.30;;;8.40;99.90;;;;;;5035033;28;20037;-37
2023/11/10 02:00:29;;;;;;;2.90;1.48;;;8.40;99.90;;;;;;5034744;28;20026;-36
2023/11/10 02:03:03;;;;;;;4.70;1.58;;;8.40;99.90;;;;;;5034575;28;20106;-37
2023/11/10 02:05:29;;;;;;;1.67;1.27;;;8.50;99.90;;;;;;5033851;28;20079;-37
2023/11/10 02:07:55;;;;;;;3.00;1.50;;;8.40;99.90;;;;;;5032219;28;20470;-37
2023/11/10 02:10:21;;;;;;;2.88;1.30;;;8.50;99.90;;;;;;5034376;28;20026;-41
2023/11/10 02:12:54;;;;;;;2.75;1.73;;;8.50;99.90;;;;;;5033862;28;20037;-37
2023/11/10 02:15:24;;;;;;;2.83;1.45;;;8.40;99.90;;;;;;5034583;28;20043;-36
2023/11/10 02:17:51;;;;;;;1.55;1.27;;;8.40;99.90;;;;;;5034014;28;20489;-37
2023/11/10 02:20:17;;;;;;;1.70;1.38;;;8.40;99.90;;;;;;5034607;28;20108;-36
2023/11/10 02:22:44;;;;;;;3.53;0.88;;;8.40;99.90;;;;;;5033308;28;20100;-38
2023/11/10 02:25:16;;;;;;;1.73;1.00;;;8.40;99.90;;;;;;5034125;28;20026;-36
2023/11/10 02:27:43;;;;;;;2.03;1.08;;;8.50;99.90;;;;;;5034286;28;20529;-37
2023/11/10 02:30:09;;;;;;;5.20;1.20;;;8.40;99.90;;;;;;5034579;28;20022;-37
2023/11/10 02:32:36;;;;;;;4.63;1.00;;;8.40;99.90;;;;;;5034302;28;20029;-37
2023/11/10 02:35:02;;;;;;;1.00;1.00;;;8.40;99.90;;;;;;5033324;28;20025;-36
2023/11/10 02:37:28;;;;;;;0.90;0.70;;;8.40;99.90;;;;;;5033904;28;20504;-43
2023/11/10 02:39:53;;;;;;;2.45;0.95;;;8.40;99.90;;;;;;5034500;28;20022;-39
2023/11/10 02:42:19;;;;;;;2.72;1.15;;;8.40;99.90;;;;;;5034417;28;20025;-38
2023/11/10 02:44:45;;;;;;;1.80;0.57;;;8.40;99.90;;;;;;5034172;28;20075;-39
2023/11/10 02:47:10;;;;;;;3.10;1.00;;;8.30;99.90;;;;;;5033686;28;20474;-43
2023/11/10 02:49:36;;;;;;;4.22;0.75;;;8.30;99.90;;;;;;5034363;28;20022;-38
2023/11/10 02:52:02;;;;;;;1.90;1.27;;;8.30;99.90;;;;;;5034028;28;20029;-38
2023/11/10 02:54:27;;;;;;;1.05;0.70;;;8.30;99.90;;;;;;5033772;28;20026;-37
2023/11/10 02:56:53;;;;;;;1.58;0.95;;;8.40;99.90;;;;;;5033887;28;20441;-37
2023/11/10 02:59:19;;;;;;;3.88;1.00;;;8.40;99.90;;;;;;5033863;28;20026;-51
2023/11/10 03:01:44;;;;;;;1.10;1.00;;;8.40;99.90;;;;;;5033873;28;20493;-55
2023/11/10 03:04:10;;;;;;;2.42;0.90;;;8.50;99.90;;;;;;5032752;28;20083;-53
2023/11/10 03:06:35;;;;;;;2.60;0.90;;;8.50;99.90;;;;;;5034064;28;20033;-54
2023/11/10 03:09:01;;;;;;;4.95;1.20;;;8.40;99.90;;;;;;5034021;28;20021;-54
2023/11/10 03:11:27;;;;;;;1.40;0.80;;;8.40;99.90;;;;;;5033683;28;20036;-54
2023/11/10 03:13:54;;;;;;;1.33;0.90;;;8.50;99.90;;;;;;5033622;28;20034;-54
2023/11/10 03:16:21;;;;;;;1.67;1.23;;;8.50;99.90;;;;;;5032292;28;20083;-54
2023/11/10 03:18:49;;;;;;;3.63;0.90;;;8.50;99.90;;;;;;5033822;28;20386;-53
2023/11/10 03:21:22;;;;;;;0.87;0.87;;;8.50;99.90;;;;;;5032071;28;20041;-51
2023/11/10 03:23:49;;;;;;;1.60;0.90;;;8.60;99.90;;;;;;5032063;28;20029;-54
2023/11/10 03:26:15;;;;;;;5.03;1.10;;;8.60;99.90;;;;;;5033685;28;20025;-52
2023/11/10 03:28:40;;;;;;;1.42;1.13;;;8.50;99.90;;;;;;5032034;28;20035;-54
2023/11/10 03:31:07;;;;;;;2.95;1.10;;;8.60;99.90;;;;;;5033204;28;20389;-54
2023/11/10 03:33:36;;;;;;;2.75;1.50;;;8.60;99.90;;;;;;5033567;28;20029;-52
2023/11/10 03:36:03;;;;;;;1.83;1.48;;;8.60;99.90;;;;;;5032939;28;20077;-54
2023/11/10 03:38:29;;;;;;;1.00;0.90;;;8.60;99.90;;;;;;5033412;28;20386;-54
2023/11/10 03:40:55;;;;;;;2.20;1.40;;;8.60;99.90;;;;;;5033232;28;20044;-50
2023/11/10 03:43:21;;;;;;;4.95;1.58;;;8.60;99.90;;;;;;5033186;28;20036;-54
2023/11/10 03:45:46;;;;;;;4.43;1.10;;;8.60;99.90;;;;;;5033056;28;20104;-53
2023/11/10 03:48:12;;;;;;;3.88;1.95;;;8.60;99.90;;;;;;5033167;28;20116;-55
2023/11/10 03:50:39;;;;;;;3.17;1.77;;;8.60;99.90;;;;;;5031799;28;20033;-53
2023/11/10 03:53:04;;;;;;;5.00;1.35;;;8.60;99.90;;;;;;5033006;28;20036;-38
2023/11/10 03:55:31;;;;;;;4.80;1.27;;;8.60;99.90;;;;;;5032722;28;20022;-38
2023/11/10 03:57:57;;;;;;;1.20;1.10;;;8.50;99.90;;;;;;5033119;28;20032;-39
2023/11/10 04:00:23;;;;;;;3.00;1.48;;;8.50;99.90;;;;;;5033117;28;20045;-37
2023/11/10 04:02:49;;;;;;;1.23;0.90;;;8.60;99.90;;;;;;5032842;28;20079;-37
2023/11/10 04:05:15;;;;;;;1.95;1.10;;;8.60;99.90;;;;;;5033067;28;20025;-36
2023/11/10 04:07:40;;;;;;;3.30;1.08;;;8.60;99.90;;;;;;5032871;28;20025;-37
2023/11/10 04:10:06;;;;;;;1.77;1.10;;;8.60;99.90;;;;;;5026409;28;20026;-37
2023/11/10 04:12:32;;;;;;;1.75;1.27;;;8.60;99.90;;;;;;5033035;28;20029;-38
2023/11/10 04:14:58;;;;;;;4.22;1.10;;;8.60;99.90;;;;;;5031528;28;20030;-38
2023/11/10 04:17:24;;;;;;;1.17;0.80;;;8.70;99.90;;;;;;5032696;28;20025;-41
2023/11/10 04:19:50;;;;;;;3.80;1.17;;;8.70;99.90;;;;;;5031905;28;20022;-38
2023/11/10 04:22:16;;;;;;;2.33;1.17;;;8.70;99.90;;;;;;5032745;28;20028;-54
2023/11/10 04:24:42;;;;;;;4.60;1.67;;;8.70;99.90;;;;;;5032417;28;20037;-50
2023/11/10 04:27:08;;;;;;;2.05;1.42;;;8.70;99.90;;;;;;5032666;28;20493;-53
2023/11/10 04:29:36;;;;;;;2.22;1.58;;;8.70;99.90;;;;;;5032721;28;20026;-54
2023/11/10 04:32:03;;;;;;;4.22;1.52;;;8.70;99.90;;;;;;5031116;28;20697;-54
2023/11/10 04:34:28;;;;;;;6.73;1.43;;;8.70;99.90;;;;;;5032621;28;20056;-54
2023/11/10 04:36:54;;;;;;;4.05;1.60;;;8.70;99.90;;;;;;5034523;28;20045;-54
2023/11/10 04:39:20;;;;;;;2.25;1.42;;;8.70;99.90;;;;;;5036478;28;20075;-53
2023/11/10 04:41:47;;;;;;;3.58;1.88;;;8.70;99.90;;;;;;5036488;28;20500;-54
2023/11/10 04:44:13;;;;;;;3.37;1.40;;;8.70;99.90;;;;;;5036456;28;20036;-50
2023/11/10 04:46:41;;;;;;;1.98;1.30;;;8.70;99.90;;;;;;5036505;28;20456;-53
2023/11/10 04:49:09;;;;;;;7.97;1.48;;;8.70;99.90;;;;;;5035077;28;20502;-54
2023/11/10 04:51:34;;;;;;;6.45;1.42;;;8.60;99.90;;;;;;5035570;28;20029;-53
2023/11/10 04:54:00;;;;;;;6.38;1.13;;;8.60;99.90;;;;;;5036247;28;20116;-53
2023/11/10 04:56:26;;;;;;;1.42;1.27;;;8.60;99.90;;;;;;5035906;28;20482;-53
2023/11/10 04:58:53;;;;;;;2.42;1.23;;;8.60;99.90;;;;;;5035848;28;20025;-54
2023/11/10 05:01:19;;;;;;;3.08;1.10;;;8.50;99.90;;;;;;5034708;28;20446;-52
2023/11/10 05:03:45;;;;;;;3.35;0.95;;;8.50;99.90;;;;;;5035106;28;20486;-54
2023/11/10 05:06:11;;;;;;;4.30;1.20;;;8.50;99.90;;;;;;5034749;28;20030;-53
2023/11/10 05:08:37;;;;;;;4.70;2.13;;;8.40;99.90;;;;;;5036000;28;20097;-53
2023/11/10 05:11:04;;;;;;;0.57;0.57;;;8.40;99.90;;;;;;5035903;28;20033;-50
2023/11/10 05:13:29;;;;;;;2.50;0.70;;;8.40;99.90;;;;;;5035901;28;20022;-52
2023/11/10 05:15:55;;;;;;;2.78;1.27;;;8.40;99.90;;;;;;5035326;28;20040;-52
2023/11/10 05:18:27;;;;;;;1.95;0.88;;;8.30;99.90;;;;;;5035552;28;20448;-52
2023/11/10 05:20:53;;;;;;;0.90;0.90;;;8.20;99.90;;;;;;5035731;28;20386;-54
2023/11/10 05:23:19;;;;;;;5.18;1.20;;;8.10;99.90;;;;;;5034435;28;20018;-51
2023/11/10 05:25:45;;;;;;;0.80;0.70;;;8.10;99.90;;;;;;5035364;28;20385;-37
2023/11/10 05:28:12;;;;;;;7.35;1.20;;;8.00;99.90;;;;;;5035836;28;20079;-38
2023/11/10 05:30:37;;;;;;;2.20;1.00;;;8.00;99.90;;;;;;5035871;28;20065;-38
2023/11/10 05:33:03;;;;;;;3.92;1.00;;;8.00;99.90;;;;;;5035582;28;20060;-37
2023/11/10 05:35:29;;;;;;;3.58;0.95;;;8.00;99.90;;;;;;5035000;28;20079;-37
2023/11/10 05:37:55;;;;;;;0.52;0.52;;;8.00;99.90;;;;;;5035292;28;20049;-38
2023/11/10 05:40:21;;;;;;;3.60;1.23;;;8.00;99.90;;;;;;5035652;28;20024;-37
2023/11/10 05:42:47;;;;;;;2.25;1.10;;;7.90;99.90;;;;;;5035304;28;20088;-36
2023/11/10 05:45:12;;;;;;;1.67;1.30;;;7.90;99.90;;;;;;5035153;28;20025;-41
2023/11/10 05:47:38;;;;;;;5.00;1.13;;;7.90;99.90;;;;;;5034074;28;20057;-37
2023/11/10 05:50:06;;;;;;;1.38;0.82;;;7.90;99.90;;;;;;5035255;28;20493;-38
2023/11/10 05:52:31;;;;;;;2.65;1.10;;;7.90;99.90;;;;;;5034942;28;20466;-38
2023/11/10 05:54:58;;;;;;;2.33;1.10;;;7.80;99.90;;;;;;5035123;28;20025;-40
2023/11/10 05:57:25;;;;;;;1.65;0.82;;;7.80;99.90;;;;;;5035174;28;20382;-37
2023/11/10 05:59:51;;;;;;;4.97;0.63;;;7.80;99.90;;;;;;5034600;28;20022;-38
2023/11/10 06:02:17;;;;;;;2.88;0.75;;;7.70;99.90;;;;;;5035124;28;20052;-38
2023/11/10 06:04:44;;;;;;;2.28;0.82;;;7.70;99.90;;;;;;5033495;28;20021;-39
2023/11/10 06:07:11;;;;;;;4.43;1.08;;;7.70;99.90;;;;;;5035436;28;20032;-41
2023/11/10 06:09:37;;;;;;;5.57;1.00;;;7.70;99.90;;;;;;5034480;28;20036;-37
2023/11/10 06:12:05;;;;;;;3.75;0.70;;;7.70;99.90;;;;;;5034921;28;20057;-37
2023/11/10 06:14:31;;;;;;;5.68;0.80;;;7.70;99.90;;;;;;5032399;28;20029;-41
2023/11/10 06:16:57;;;;;;;7.07;0.80;;;7.80;99.90;;;;;;5034575;28;20389;-36
2023/11/10 06:19:23;;;;;;;3.38;0.80;;;7.80;99.90;;;;;;5034539;28;20029;-37
2023/11/10 06:21:50;;;;;;;3.95;0.90;;;7.90;99.90;;;;;;5034648;28;20020;-39
2023/11/10 06:24:16;;;;;;;1.10;1.00;;;7.90;99.90;;;;;;5033363;28;20497;-37
2023/11/10 06:26:42;;;;;;;2.53;0.77;;;7.90;99.90;;;;;;5034717;28;20489;-38
2023/11/10 06:29:08;;;;;;;2.50;1.17;;;8.00;99.90;;;;;;5034403;28;20037;-38
2023/11/10 06:31:34;;;;;;;3.45;0.95;;;8.00;99.90;;;;;;5034393;28;20026;-38
2023/11/10 06:34:00;;;;;;;3.90;0.85;;;8.00;99.90;;;;;;5029777;28;20026;-38
2023/11/10 06:36:26;;;;;;;3.42;0.88;;;8.00;99.90;;;;;;5022542;28;20044;-37
2023/11/10 06:38:52;;;;;;;5.85;0.85;;;8.00;99.90;;;;;;5032912;28;20483;-36
2023/11/10 06:41:18;;;;;;;3.28;0.98;;;8.00;99.90;;;;;;5034257;28;20025;-36
2023/11/10 06:43:47;;;;;;;7.57;1.27;;;8.10;99.90;;;;;;5034315;28;20065;-37
2023/11/10 06:46:23;;;;;;;3.83;1.10;;;8.10;99.90;;;;;;5034034;28;20486;-39
2023/11/10 06:48:53;;;;;;;3.50;0.90;;;8.10;99.90;;;;;;5034420;28;20029;-39
2023/11/10 06:51:19;;;;;;;11.05;1.13;;;8.10;99.90;;;;;;5034408;28;20485;-40
2023/11/10 06:53:45;;;;;;;1.30;0.50;;;8.10;99.90;;;;;;5033677;28;20120;-42
2023/11/10 06:56:11;;;;;;;0.80;0.55;;;8.10;99.90;;;;;;5034168;28;20477;-37
2023/11/10 06:58:37;;;;;;;3.05;0.70;;;8.10;99.90;;;;;;5031890;28;20018;-39
2023/11/10 07:01:05;;;;;;;2.53;0.77;;;8.10;99.90;;;;;;5033538;28;20101;-40
2023/11/10 07:03:31;;;;;;;2.38;0.88;;;8.10;99.90;;;;;;5032476;28;20021;-38
2023/11/10 07:05:57;;;;;;;2.60;0.70;;;8.10;99.90;;;;;;5033715;28;20029;-37
2023/11/10 07:08:23;;;;;;;1.00;0.88;;;8.10;99.90;;;;;;5033663;28;20539;-39
2023/11/10 07:10:53;;;;;;;3.80;0.90;;;8.10;99.90;;;;;;5032552;28;20029;-38
2023/11/10 07:13:19;;;;;;;3.97;0.98;;;8.10;99.90;;;;;;5033707;28;20549;-38
2023/11/10 07:18:58;;;;;;;6.40;0.80;;;8.10;99.90;;;;;;5022840;28;20393;-39
2023/11/10 07:21:25;;;;;;;5.63;0.98;;;8.10;99.90;;;;;;5033653;28;20055;-41
2023/11/10 07:23:51;;;;;;;7.00;1.35;;;8.10;99.90;;;;;;5033404;28;20026;-39
2023/11/10 07:26:18;;;;;;;5.22;0.95;;;8.00;99.90;;;;;;5033718;28;20025;-38
2023/11/10 07:28:44;;;;;;;10.05;0.98;;;8.00;99.90;;;;;;5033297;28;20029;-40
2023/11/10 07:31:09;;;;;;;8.85;1.50;;;8.10;99.90;;;;;;5033283;28;20105;-36
2023/11/10 07:33:35;;;;;;;6.00;1.13;;;8.10;99.90;;;;;;5033233;28;20451;-37
2023/11/10 07:36:01;;;;;;;2.28;0.70;;;8.10;99.90;;;;;;5033227;28;20109;-37
2023/11/10 07:38:28;;;;;;;2.58;1.33;;;8.10;99.90;;;;;;5033378;28;20409;-38
2023/11/10 07:40:53;;;;;;;5.63;1.25;;;8.10;99.90;;;;;;5033147;28;20038;-39
2023/11/10 07:43:19;;;;;;;1.52;1.02;;;8.10;99.90;;;;;;5033064;28;20033;-39
2023/11/10 07:45:45;;;;;;;5.88;1.30;;;8.10;99.90;;;;;;5033344;28;20474;-38
2023/11/10 07:48:11;;;;;;;5.65;1.50;;;8.10;99.90;;;;;;5033070;28;20029;-38
2023/11/10 07:50:36;;;;;;;2.30;1.20;;;8.20;99.90;;;;;;5033070;28;20060;-38
2023/11/10 07:53:02;;;;;;;7.03;1.70;;;8.20;99.90;;;;;;5032882;28;20121;-38
2023/11/10 07:55:28;;;;;;;5.80;1.25;;;8.20;99.90;;;;;;5032801;28;20052;-38
2023/11/10 07:57:53;;;;;;;2.10;1.08;;;8.20;99.90;;;;;;5032989;28;20040;-39
2023/11/10 08:00:19;;;;;;;2.75;1.42;;;8.20;99.90;;;;;;5032946;28;20021;-37
2023/11/10 08:02:54;;;;;;;2.22;1.17;;;8.30;99.90;;;;;;5032781;28;20022;-38
2023/11/10 08:05:22;;;;;;;10.77;1.65;;;8.30;99.90;;;;;;5032784;28;20066;-37
2023/11/10 08:07:55;;;;;;;2.75;1.40;;;8.30;99.90;;;;;;5032843;28;20041;-39
2023/11/10 08:10:21;;;;;;;1.73;1.38;;;8.30;99.90;;;;;;5032356;28;20493;-39
2023/11/10 08:12:46;;;;;;;7.43;1.02;;;8.40;99.90;;;;;;5031445;28;20163;-39
2023/11/10 08:15:12;;;;;;;3.38;1.50;;;8.40;99.90;;;;;;5032708;28;20536;-38
2023/11/10 08:17:38;;;;;;;1.35;1.35;;;8.50;99.90;;;;;;5032906;28;20172;-42
2023/11/10 08:20:05;;;;;;;5.43;1.88;;;8.50;99.90;;;;;;5031391;28;20112;-37
2023/11/10 08:22:31;;;;;;;6.18;2.15;;;8.50;99.90;;;;;;5032686;28;20030;-39
2023/11/10 08:24:56;;;;;;;2.95;1.58;;;8.50;99.90;;;;;;5032656;28;20030;-39
2023/11/10 08:27:22;;;;;;;1.92;1.45;;;8.50;99.90;;;;;;5032593;28;20023;-54
2023/11/10 08:29:48;;;;;;;3.90;2.47;;;8.50;99.90;;;;;;5032650;28;20524;-54
2023/11/10 08:32:14;;;;;;;7.32;1.38;;;8.50;99.90;;;;;;5032853;28;20033;-53
2023/11/10 08:34:40;;;;;;;4.25;1.40;;;8.50;99.90;;;;;;5032645;28;20080;-52
2023/11/10 08:37:05;;;;;;;4.82;2.20;;;8.50;99.90;;;;;;5032318;28;20037;-54
2023/11/10 08:39:31;;;;;;;4.68;1.58;;;8.50;99.90;;;;;;5032438;28;20382;-55
2023/11/10 08:41:57;;;;;;;1.92;1.42;;;8.50;99.90;;;;;;5032442;28;20045;-55
2023/11/10 08:44:23;;;;;;;3.20;1.30;;;8.60;99.90;;;;;;5032511;28;20384;-53
2023/11/10 08:46:52;;;;;;;6.53;1.63;;;8.50;99.90;;;;;;5032750;28;20389;-52
2023/11/10 08:49:18;;;;;;;4.50;1.55;;;8.40;99.90;;;;;;5032499;28;20032;-54
2023/11/10 08:51:43;;;;;;;4.22;1.48;;;8.40;99.90;;;;;;5032696;28;20090;-55
2023/11/10 08:54:09;;;;;;;2.13;1.40;;;8.50;99.90;;;;;;5032625;28;20041;-54
2023/11/10 08:56:35;;;;;;;6.07;2.05;;;8.50;99.90;;;;;;5032374;28;20073;-56
2023/11/10 08:59:03;;;;;;;5.75;1.70;;;8.60;99.90;;;;;;5032464;28;20132;-54
2023/11/10 09:01:29;;;;;;;5.05;2.05;;;8.50;99.90;;;;;;5031145;28;20025;-54
2023/11/10 09:03:55;;;;;;;2.65;1.60;;;8.50;99.90;;;;;;5032335;28;20030;-53
2023/11/10 09:06:21;;;;;;;5.97;2.10;;;8.50;99.90;;;;;;5032200;28;20108;-53
2023/11/10 09:08:46;;;;;;;4.72;1.73;;;8.60;99.90;;;;;;5031523;28;20400;-54
2023/11/10 09:11:12;;;;;;;7.38;2.03;;;8.60;99.90;;;;;;5031919;28;20026;-55
2023/11/10 09:13:39;;;;;;;7.35;3.17;;;8.60;99.90;;;;;;5031763;28;20030;-52
2023/11/10 09:16:05;;;;;;;8.00;2.17;;;8.60;99.90;;;;;;5031009;28;20060;-54
2023/11/10 09:18:31;;;;;;;6.25;1.70;;;8.70;99.90;;;;;;5032031;28;20504;-53
2023/11/10 09:21:00;;;;;;;8.50;1.70;;;8.70;99.90;;;;;;5031988;28;20032;-56
2023/11/10 09:23:28;;;;;;;2.65;1.70;;;8.70;99.90;;;;;;5032286;28;20021;-54
2023/11/10 09:25:56;;;;;;;5.05;1.90;;;8.70;99.90;;;;;;5034550;28;20378;-53
2023/11/10 09:28:24;;;;;;;7.47;2.35;;;8.80;99.90;;;;;;5027354;28;20029;-54
2023/11/10 09:30:51;;;;;;;;;;;8.80;99.90;;;;;;5035686;28;20060;-54
2023/11/10 09:33:16;;;;;;;3.15;1.80;;;8.90;99.90;;;;;;5035654;28;20262;-55
2023/11/10 09:35:42;;;;;;;2.38;1.52;;;8.90;99.90;;;;;;5035575;28;20079;-55
2023/11/10 09:38:09;;;;;;;11.15;2.58;;;9.00;99.90;;;;;;5035195;28;20044;-49
2023/11/10 09:40:35;;;;;;;7.85;2.47;;;9.00;99.90;;;;;;5034131;28;20576;-54
2023/11/10 09:43:01;;;;;;;6.28;1.92;;;9.00;99.90;;;;;;5035345;28;20029;-54
2023/11/10 09:45:28;;;;;;;8.65;1.92;;;9.10;99.90;;;;;;5035551;28;20032;-55
2023/11/10 09:47:54;;;;;;;5.63;2.00;;;9.10;99.90;;;;;;5035304;28;20025;-52
2023/11/10 09:50:25;;;;;;;3.97;1.83;;;9.20;99.90;;;;;;5035099;28;20074;-54
2023/11/10 09:52:53;;;;;;;5.95;1.65;;;9.20;99.90;;;;;;5035446;28;20056;-55
2023/11/10 09:55:20;;;;;;;0.93;0.80;;;9.20;99.90;;;;;;5035057;28;20044;-55
2023/11/10 09:57:50;;;;;;;1.92;1.30;;;9.30;99.90;;;;;;5034931;28;20032;-51
2023/11/10 10:00:17;;;;;;;3.47;1.02;;;9.30;99.90;;;;;;5035270;28;20025;-54
2023/11/10 10:02:43;;;;;;;4.88;1.10;;;9.30;99.90;;;;;;5034650;28;20079;-55
2023/11/10 10:05:09;;;;;;;4.43;1.00;;;9.30;99.90;;;;;;5034913;28;20557;-52
2023/11/10 10:07:35;;;;;;;2.63;1.23;;;9.30;99.90;;;;;;5035059;28;20113;-50
2023/11/10 10:10:01;;;;;;;2.80;1.13;;;9.30;99.90;;;;;;5033539;28;20083;-51
2023/11/10 10:12:29;;;;;;;5.15;1.55;;;9.40;99.90;;;;;;5034829;28;20044;-54
2023/11/10 10:14:55;;;;;;;5.73;1.20;;;9.50;99.90;;;;;;5035004;28;20508;-56
2023/11/10 10:17:37;;;;;;;4.05;0.88;;;9.50;99.90;;;;;;5034637;28;20037;-52
2023/11/10 10:20:14;;;;;;;2.65;1.27;;;9.50;99.90;;;;;;5034714;28;20037;-55
2023/11/10 10:22:47;;;;;;;8.52;2.30;;;9.50;99.90;;;;;;5034663;28;20087;-52
2023/11/10 10:25:20;;;;;;;4.47;0.95;;;9.50;99.90;;;;;;5034459;28;20033;-53
2023/11/10 10:27:46;;;;;;;3.83;1.33;;;9.50;99.90;;;;;;5034795;28;20493;-52
2023/11/10 10:30:13;;;;;;;3.38;1.30;;;9.40;99.90;;;;;;5034769;28;20478;-53
2023/11/10 10:32:39;;;;;;;1.38;1.05;;;9.40;99.90;;;;;;5034686;28;20036;-53
2023/11/10 10:35:07;;;;;;;12.55;2.38;;;9.40;99.90;;;;;;5032346;28;20532;-52
2023/11/10 10:37:35;;;;;;;1.83;1.20;;;9.30;99.90;;;;;;5034191;28;20490;-54
2023/11/10 10:40:01;;;;;;;5.18;1.00;;;9.30;99.90;;;;;;5034552;28;20529;-54
2023/11/10 10:42:34;;;;;;;4.80;1.20;;;9.30;99.90;;;;;;5032822;28;20366;-54
2023/11/10 10:45:04;;;;;;;2.97;0.95;;;9.20;99.90;;;;;;5033878;28;20497;-52
2023/11/10 10:47:33;;;;;;;3.80;1.10;;;9.20;99.90;;;;;;5027022;28;20389;-53
2023/11/10 10:50:02;;;;;;;3.00;1.20;;;9.30;99.90;;;;;;5031169;28;20462;-53
2023/11/10 10:52:31;;;;;;;4.88;1.13;;;9.30;99.90;;;;;;5034035;28;20029;-53
2023/11/10 10:54:58;;;;;;;4.72;1.60;;;9.20;99.90;;;;;;5031466;28;20424;-53
2023/11/10 10:57:25;;;;;;;3.60;1.17;;;9.20;99.90;;;;;;5031906;28;20512;-54
2023/11/10 10:59:51;;;;;;;6.97;2.33;;;9.20;99.90;;;;;;5033045;28;20478;-54
2023/11/10 11:02:20;;;;;;;4.10;1.77;;;9.30;99.90;;;;;;5032706;28;20110;-54
2023/11/10 11:05:21;;;;;;;5.18;1.85;;;9.30;99.90;;;;;;5033268;28;20029;-52
2023/11/10 11:08:14;;;;;;;8.52;1.95;;;9.30;99.90;;;;;;5007057;28;20037;-54
2023/11/10 11:10:50;;;;;;;4.97;1.60;;;9.30;99.90;;;;;;5031077;28;20021;-50
2023/11/10 11:13:41;;;;;;;5.65;1.48;;;9.40;99.90;;;;;;5033849;28;20037;-55
2023/11/10 11:16:42;;;;;;;6.43;1.67;;;9.40;99.90;;;;;;5033739;28;20037;-52
2023/11/10 11:19:28;;;;;;;6.43;1.73;;;9.40;99.90;;;;;;5032377;28;20437;-54
2023/11/10 11:21:55;;;;;;;7.10;1.55;;;9.50;99.90;;;;;;5033555;28;20021;-53
2023/11/10 11:24:24;;;;;;;1.67;1.58;;;9.50;99.90;;;;;;5033744;28;20018;-52
2023/11/10 11:27:00;;;;;;;5.38;1.50;;;9.50;99.90;;;;;;5033725;28;20359;-52
2023/11/10 11:29:34;;;;;;;3.67;1.35;;;9.50;99.90;;;;;;5032241;28;20474;-53
2023/11/10 11:32:04;;;;;;;1.60;1.42;;;9.60;99.90;;;;;;5031131;28;20121;-54
2023/11/10 11:34:30;;;;;;;2.40;1.40;;;9.60;99.90;;;;;;5033492;28;20128;-54
2023/11/10 11:36:57;;;;;;;4.25;1.73;;;9.60;99.90;;;;;;5032919;28;20120;-52
2023/11/10 11:39:26;;;;;;;9.15;1.50;;;9.70;99.90;;;;;;5031986;28;20037;-53
2023/11/10 11:41:53;;;;;;;4.55;1.52;;;9.80;99.90;;;;;;5031847;28;20049;-54
2023/11/10 11:44:29;;;;;;;2.83;1.35;;;9.80;99.90;;;;;;5033406;28;20025;-51
2023/11/10 11:47:03;;;;;;;5.53;1.23;;;9.80;99.90;;;;;;5033109;28;20524;-54
2023/11/10 11:49:29;;;;;;;3.10;1.35;;;9.80;99.90;;;;;;5032790;28;20482;-53
2023/11/10 11:51:56;;;;;;;3.20;1.10;;;9.80;99.90;;;;;;5033053;28;20037;-53
2023/11/10 11:57:15;;;;;;;2.05;1.83;;;9.70;99.90;;;;;;5032887;28;20041;-54
2023/11/10 11:59:41;;;;;;;2.60;1.35;;;9.80;99.90;;;;;;5031687;28;20029;-51
2023/11/10 12:02:07;;;;;;;4.05;1.42;;;9.70;99.90;;;;;;5029140;28;20039;-54
2023/11/10 12:04:33;;;;;;;6.45;1.42;;;9.70;99.90;;;;;;5027560;28;20104;-53
2023/11/10 12:06:59;;;;;;;3.20;1.30;;;9.80;99.90;;;;;;5027429;28;20032;-53
2023/11/10 12:09:25;;;;;;;4.25;1.30;;;9.70;99.90;;;;;;5030722;28;20025;-54
2023/11/10 12:11:51;;;;;;;2.53;1.17;;;9.70;99.90;;;;;;5030091;28;20061;-53
2023/11/10 12:14:22;;;;;;;5.68;1.35;;;9.70;99.90;;;;;;5032710;28;20482;-52
2023/11/10 12:16:47;;;;;;;2.10;1.02;;;9.60;99.90;;;;;;5032528;28;20057;-40
2023/11/10 12:19:15;;;;;;;6.85;1.73;;;9.60;99.90;;;;;;5032738;28;20149;-36
2023/11/10 12:21:42;;;;;;;8.10;1.58;;;9.50;99.90;;;;;;5032974;28;20532;-53
2023/11/10 12:24:08;;;;;;;6.28;1.42;;;9.40;99.90;;;;;;5032480;28;20082;-52
2023/11/10 12:26:39;;;;;;;4.57;1.27;;;9.20;99.90;;;;;;5032697;28;20076;-54
2023/11/10 12:29:07;;;;;;;3.67;1.85;;;9.10;99.90;;;;;;5032879;28;20029;-53
2023/11/10 12:31:33;;;;;;;4.85;1.10;;;9.10;99.90;;;;;;5032926;28;20021;-54
2023/11/10 12:34:00;;;;;;;3.60;1.48;;;9.00;99.90;;;;;;5032906;28;20363;-55
2023/11/10 12:36:33;;;;;;;4.90;1.80;;;9.00;99.90;;;;;;5032504;28;20049;-53
2023/11/10 12:39:02;;;;;;;2.88;1.80;;;9.00;99.90;;;;;;5032664;28;20437;-55
2023/11/10 12:41:29;;;;;;;4.38;1.58;;;9.00;99.90;;;;;;5032345;28;20025;-54
2023/11/10 12:43:55;;;;;;;6.53;1.40;;;9.00;99.90;;;;;;5032415;28;20022;-53
2023/11/10 12:46:21;;;;;;;6.18;1.63;;;9.00;99.90;;;;;;5032723;28;20025;-52
2023/11/10 12:48:52;;;;;;;7.75;1.40;;;8.90;99.90;;;;;;5032481;28;20095;-50
2023/11/10 12:51:21;;;;;;;2.08;1.50;;;8.90;99.90;;;;;;5032720;28;20033;-53
2023/11/10 12:53:47;;;;;;;3.33;1.85;;;8.90;99.90;;;;;;5032635;28;20504;-49
2023/11/10 12:56:13;;;;;;;2.40;1.23;;;8.90;99.90;;;;;;5032683;28;20033;-53
2023/11/10 12:58:38;;;;;;;5.85;1.75;;;8.90;99.90;;;;;;5035501;28;20026;-49
2023/11/10 13:01:06;;;;;;;2.20;1.40;;;8.90;99.90;;;;;;5036133;28;20026;-52
2023/11/10 13:03:32;;;;;;;;;;;8.90;99.90;;;;;;5036551;28;20071;-52